createdAt,value
2022-12-15T00:07:56.147Z,-5.20
2022-12-15T00:16:37.777Z,-5.20
2022-12-15T00:25:19.427Z,-5.20
2022-12-15T00:34:00.848Z,-5.23
2022-12-15T00:42:23.717Z,-5.25
2022-12-15T00:50:52.595Z,-5.21
2022-12-15T00:59:35.934Z,-5.20
2022-12-15T01:08:21.030Z,-5.12
2022-12-15T01:17:02.768Z,-5.09
2022-12-15T01:25:27.752Z,-5.09
2022-12-15T01:33:53.890Z,-5.07
2022-12-15T01:42:16.893Z,-5.00
2022-12-15T01:50:44.126Z,-4.98
2022-12-15T01:59:12.283Z,-4.97
2022-12-15T02:07:35.183Z,-4.99
2022-12-15T02:16:38.679Z,-5.04
2022-12-15T02:25:07.746Z,-5.10
2022-12-15T02:33:33.297Z,-5.17
2022-12-15T02:41:56.440Z,-5.24
2022-12-15T02:50:39.997Z,-5.26
2022-12-15T02:59:35.446Z,-5.16
2022-12-15T03:07:58.897Z,-5.00
2022-12-15T03:16:22.446Z,-4.96
2022-12-15T03:24:45.413Z,-4.98
2022-12-15T03:33:08.779Z,-5.03
2022-12-15T03:41:31.675Z,-5.01
2022-12-15T03:49:54.548Z,-4.98
2022-12-15T03:58:17.604Z,-4.99
2022-12-15T04:06:40.483Z,-5.01
2022-12-15T04:15:03.614Z,-5.03
2022-12-15T04:23:26.696Z,-4.98
2022-12-15T04:32:08.589Z,-4.85
2022-12-15T04:40:50.179Z,-4.77
2022-12-15T04:49:31.774Z,-4.81
2022-12-15T04:58:13.333Z,-4.88
2022-12-15T05:06:55.259Z,-4.83
2022-12-15T05:15:38.595Z,-4.70
2022-12-15T05:24:20.315Z,-4.66
2022-12-15T05:32:43.214Z,-4.73
2022-12-15T05:41:06.183Z,-4.83
2022-12-15T05:49:29.169Z,-4.85
2022-12-15T05:57:53.456Z,-4.80
2022-12-15T06:06:16.603Z,-4.79
2022-12-15T06:14:39.549Z,-4.89
2022-12-15T06:23:02.367Z,-4.92
2022-12-15T06:31:26.994Z,-4.87
2022-12-15T06:39:50.179Z,-4.85
2022-12-15T06:48:13.102Z,-4.88
2022-12-15T06:56:36.287Z,-4.82
2022-12-15T07:04:59.468Z,-4.70
2022-12-15T07:13:22.579Z,-4.65
2022-12-15T07:21:45.558Z,-4.63
2022-12-15T07:30:09.088Z,-4.62
2022-12-15T07:38:32.327Z,-4.56
2022-12-15T07:46:55.820Z,-4.43
2022-12-15T07:55:37.234Z,-4.36
2022-12-15T08:04:02.735Z,-4.33
2022-12-15T08:12:27.800Z,-4.23
2022-12-15T08:20:51.341Z,-4.10
2022-12-15T08:38:02.278Z,-3.95
2022-12-15T08:46:33.906Z,-3.85
2022-12-15T08:54:56.946Z,-3.75
2022-12-15T09:03:19.894Z,-3.62
2022-12-15T09:11:42.890Z,-3.51
2022-12-15T09:20:06.768Z,-3.36
2022-12-15T09:28:32.225Z,-3.25
2022-12-15T09:36:55.379Z,-3.30
2022-12-15T09:45:22.461Z,-3.32
2022-12-15T09:53:55.838Z,-3.25
2022-12-15T10:02:28.817Z,-3.22
2022-12-15T10:10:51.854Z,-3.20
2022-12-15T10:19:24.347Z,-3.14
2022-12-15T10:28:07.995Z,-3.01
2022-12-15T10:36:30.890Z,-2.94
2022-12-15T10:44:56.608Z,-3.01
2022-12-15T10:53:50.496Z,-3.01
2022-12-15T11:02:24.569Z,-3.03
2022-12-15T11:11:17.599Z,-3.11
2022-12-15T11:19:54.019Z,-3.08
2022-12-15T11:28:28.724Z,-3.01
2022-12-15T11:37:04.115Z,-3.06
2022-12-15T11:46:05.779Z,-3.14
2022-12-15T11:54:39.847Z,-3.19
2022-12-15T12:03:25.435Z,-3.14
2022-12-15T12:12:05.852Z,-3.09
2022-12-15T12:20:42.204Z,-3.06
2022-12-15T12:29:13.329Z,-3.02
2022-12-15T12:46:44.602Z,-2.89
2022-12-15T12:55:26.447Z,-2.93
2022-12-15T13:04:34.113Z,-3.06
2022-12-15T13:13:01.432Z,-3.12
2022-12-15T13:21:44.234Z,-3.09
2022-12-15T13:30:07.233Z,-3.10
2022-12-15T13:38:56.620Z,-3.20
2022-12-15T13:47:28.847Z,-3.29
2022-12-15T13:56:06.968Z,-3.33
2022-12-15T14:04:29.872Z,-3.38
2022-12-15T14:12:57.346Z,-3.49
2022-12-15T14:21:27.071Z,-3.54
2022-12-15T14:29:50.778Z,-3.52
2022-12-15T14:38:22.326Z,-3.61
2022-12-15T14:46:49.712Z,-3.65
2022-12-15T14:55:23.475Z,-3.66
2022-12-15T15:03:07.202Z,-2.97
2022-12-15T15:03:57.068Z,-3.66
2022-12-15T15:12:23.032Z,-3.74
2022-12-15T15:20:58.066Z,-3.73
2022-12-15T15:29:38.684Z,-3.68
2022-12-15T15:38:07.500Z,-3.66
2022-12-15T15:46:34.767Z,-3.67
2022-12-15T15:54:59.625Z,-3.73
2022-12-15T16:03:22.720Z,-3.73
2022-12-15T16:11:47.128Z,-3.67
2022-12-15T16:20:13.128Z,-3.65
2022-12-15T16:28:37.044Z,-3.74
2022-12-15T16:37:00.346Z,-3.82
2022-12-15T16:45:25.680Z,-3.84
2022-12-15T16:53:48.667Z,-3.80
2022-12-15T17:02:27.786Z,-3.84
2022-12-15T17:10:51.679Z,-4.10
2022-12-15T17:19:20.707Z,-4.41
2022-12-15T17:27:45.907Z,-4.71
2022-12-15T17:36:19.222Z,-4.87
2022-12-15T17:44:42.206Z,-4.95
2022-12-15T17:53:06.590Z,-5.13
2022-12-15T18:01:29.567Z,-5.48
2022-12-15T18:09:53.231Z,-5.88
2022-12-15T18:18:18.135Z,-6.36
2022-12-15T18:26:41.029Z,-6.77
2022-12-15T18:35:15.168Z,-7.03
2022-12-15T18:43:38.259Z,-7.31
2022-12-15T18:52:01.139Z,-7.75
2022-12-15T19:00:30.293Z,-7.97
2022-12-15T19:08:53.502Z,-7.90
2022-12-15T19:17:40.116Z,-7.83
2022-12-15T19:26:03.411Z,-7.78
2022-12-15T19:34:28.372Z,-7.64
2022-12-15T19:42:55.535Z,-7.65
2022-12-15T19:51:23.145Z,-7.70
2022-12-15T19:59:46.131Z,-7.73
2022-12-15T20:08:18.127Z,-7.91
2022-12-15T20:16:43.351Z,-8.12
2022-12-15T20:25:06.564Z,-8.32
2022-12-15T20:33:29.739Z,-8.48
2022-12-15T20:41:54.719Z,-8.53
2022-12-15T20:50:21.767Z,-8.38
2022-12-15T20:58:46.130Z,-8.20
2022-12-15T21:07:12.477Z,-8.07
2022-12-15T21:15:35.286Z,-8.05
2022-12-15T21:23:59.996Z,-7.94
2022-12-15T21:32:22.867Z,-7.80
2022-12-15T21:40:45.752Z,-7.66
2022-12-15T21:49:18.617Z,-7.54
2022-12-15T21:57:41.577Z,-7.40
2022-12-15T22:06:04.677Z,-7.32
2022-12-15T22:14:33.973Z,-7.33
2022-12-15T22:22:56.859Z,-7.41
2022-12-15T22:31:19.988Z,-7.44
2022-12-15T22:39:43.119Z,-7.41
2022-12-15T22:48:06.086Z,-7.36
2022-12-15T22:56:37.394Z,-7.33
2022-12-15T23:05:00.735Z,-7.36
2022-12-15T23:13:23.727Z,-7.36
2022-12-15T23:21:46.789Z,-7.28
2022-12-15T23:30:10.066Z,-7.27
2022-12-15T23:38:33.084Z,-7.20
2022-12-15T23:47:01.486Z,-7.10
2022-12-15T23:55:24.491Z,-7.00
